sensor_id;sensor_type;location;lat;lon;timestamp;pressure;altitude;pressure_sealevel;temperature;humidity
75359;BME280;64046;51.978;5.934;2023-04-03T00:00:11;102928.25;;;9.28;54.41
75359;BME280;64046;51.978;5.934;2023-04-03T00:02:40;102930.06;;;9.14;54.50
75359;BME280;64046;51.978;5.934;2023-04-03T00:05:09;102937.06;;;9.13;54.55
75359;BME280;64046;51.978;5.934;2023-04-03T00:07:38;102938.78;;;9.16;54.41
75359;BME280;64046;51.978;5.934;2023-04-03T00:10:09;102939.63;;;9.24;54.45
75359;BME280;64046;51.978;5.934;2023-04-03T00:12:38;102946.66;;;9.14;54.55
75359;BME280;64046;51.978;5.934;2023-04-03T00:15:08;102940.53;;;9.18;54.54
75359;BME280;64046;51.978;5.934;2023-04-03T00:17:40;102942.22;;;9.29;54.63
75359;BME280;64046;51.978;5.934;2023-04-03T00:20:10;102941.41;;;9.17;54.66
75359;BME280;64046;51.978;5.934;2023-04-03T00:22:39;102942.28;;;9.12;54.80
75359;BME280;64046;51.978;5.934;2023-04-03T00:25:09;102939.69;;;9.12;54.98
75359;BME280;64046;51.978;5.934;2023-04-03T00:27:39;102948.38;;;9.14;55.01
75359;BME280;64046;51.978;5.934;2023-04-03T00:30:12;102949.19;;;9.25;54.88
75359;BME280;64046;51.978;5.934;2023-04-03T00:32:45;102955.31;;;9.27;54.84
75359;BME280;64046;51.978;5.934;2023-04-03T00:35:14;102951.91;;;9.05;55.01
75359;BME280;64046;51.978;5.934;2023-04-03T00:37:43;102948.44;;;9.03;55.42
75359;BME280;64046;51.978;5.934;2023-04-03T00:40:13;102947.53;;;9.10;55.61
75359;BME280;64046;51.978;5.934;2023-04-03T00:42:46;102949.28;;;9.13;55.69
75359;BME280;64046;51.978;5.934;2023-04-03T00:45:34;102952.75;;;9.15;55.53
75359;BME280;64046;51.978;5.934;2023-04-03T00:48:09;102949.28;;;9.04;56.02
75359;BME280;64046;51.978;5.934;2023-04-03T00:50:40;102958.00;;;8.99;56.37
75359;BME280;64046;51.978;5.934;2023-04-03T00:53:15;102946.66;;;9.05;56.21
75359;BME280;64046;51.978;5.934;2023-04-03T00:55:47;102958.00;;;9.09;56.39
75359;BME280;64046;51.978;5.934;2023-04-03T00:58:18;102958.88;;;9.05;56.49
75359;BME280;64046;51.978;5.934;2023-04-03T01:00:52;102958.00;;;9.07;56.55
75359;BME280;64046;51.978;5.934;2023-04-03T01:03:26;102965.88;;;9.04;56.84
75359;BME280;64046;51.978;5.934;2023-04-03T01:05:58;102962.44;;;8.90;57.21
75359;BME280;64046;51.978;5.934;2023-04-03T01:08:28;102966.75;;;8.91;57.24
75359;BME280;64046;51.978;5.934;2023-04-03T01:10:58;102975.50;;;8.91;57.27
75359;BME280;64046;51.978;5.934;2023-04-03T01:13:30;102972.00;;;8.98;57.32
75359;BME280;64046;51.978;5.934;2023-04-03T01:16:01;102977.22;;;8.94;57.79
75359;BME280;64046;51.978;5.934;2023-04-03T01:18:34;102970.25;;;8.91;57.99
75359;BME280;64046;51.978;5.934;2023-04-03T01:21:23;102969.38;;;8.89;58.21
75359;BME280;64046;51.978;5.934;2023-04-03T01:24:03;102967.66;;;8.80;58.43
75359;BME280;64046;51.978;5.934;2023-04-03T01:26:37;102968.56;;;8.64;58.64
75359;BME280;64046;51.978;5.934;2023-04-03T01:29:06;102966.81;;;8.66;58.80
75359;BME280;64046;51.978;5.934;2023-04-03T01:31:48;102977.22;;;8.94;58.56
75359;BME280;64046;51.978;5.934;2023-04-03T01:34:18;102977.25;;;8.74;59.14
75359;BME280;64046;51.978;5.934;2023-04-03T01:36:47;102977.28;;;8.61;59.43
75359;BME280;64046;51.978;5.934;2023-04-03T01:39:17;102974.69;;;8.57;59.71
75359;BME280;64046;51.978;5.934;2023-04-03T01:41:47;102977.28;;;8.54;60.07
75359;BME280;64046;51.978;5.934;2023-04-03T01:44:23;102979.03;;;8.55;60.11
75359;BME280;64046;51.978;5.934;2023-04-03T01:46:54;102983.38;;;8.71;60.16
75359;BME280;64046;51.978;5.934;2023-04-03T01:49:25;102983.41;;;8.54;60.32
75359;BME280;64046;51.978;5.934;2023-04-03T01:51:55;102985.13;;;8.57;60.41
75359;BME280;64046;51.978;5.934;2023-04-03T01:54:24;102977.28;;;8.61;60.30
75359;BME280;64046;51.978;5.934;2023-04-03T01:56:53;102987.72;;;8.63;60.44
75359;BME280;64046;51.978;5.934;2023-04-03T01:59:23;102986.88;;;8.64;60.62
75359;BME280;64046;51.978;5.934;2023-04-03T02:01:55;102986.84;;;8.72;60.86
75359;BME280;64046;51.978;5.934;2023-04-03T02:04:24;102986.88;;;8.53;61.05
75359;BME280;64046;51.978;5.934;2023-04-03T02:06:53;102983.38;;;8.56;61.32
75359;BME280;64046;51.978;5.934;2023-04-03T02:09:22;102986.00;;;8.56;61.44
75359;BME280;64046;51.978;5.934;2023-04-03T02:11:52;102984.25;;;8.56;61.63
75359;BME280;64046;51.978;5.934;2023-04-03T02:14:21;102990.38;;;8.58;61.58
75359;BME280;64046;51.978;5.934;2023-04-03T02:16:55;102989.47;;;8.70;61.64
75359;BME280;64046;51.978;5.934;2023-04-03T02:19:24;102999.94;;;8.53;62.08
75359;BME280;64046;51.978;5.934;2023-04-03T02:21:53;102998.19;;;8.52;62.03
75359;BME280;64046;51.978;5.934;2023-04-03T02:24:22;102999.06;;;8.51;62.21
75359;BME280;64046;51.978;5.934;2023-04-03T02:26:52;102992.97;;;8.52;62.30
75359;BME280;64046;51.978;5.934;2023-04-03T02:29:21;103001.69;;;8.51;62.70
75359;BME280;64046;51.978;5.934;2023-04-03T02:31:51;102998.19;;;8.47;62.87
75359;BME280;64046;51.978;5.934;2023-04-03T02:34:24;103000.78;;;8.54;62.99
75359;BME280;64046;51.978;5.934;2023-04-03T02:36:54;103005.13;;;8.38;63.35
75359;BME280;64046;51.978;5.934;2023-04-03T02:39:24;103000.75;;;8.35;63.66
75359;BME280;64046;51.978;5.934;2023-04-03T02:41:55;103000.75;;;8.32;63.78
75359;BME280;64046;51.978;5.934;2023-04-03T02:44:25;102998.16;;;8.29;64.20
75359;BME280;64046;51.978;5.934;2023-04-03T02:46:54;103002.53;;;8.25;64.22
75359;BME280;64046;51.978;5.934;2023-04-03T02:49:26;102997.28;;;8.39;64.24
75359;BME280;64046;51.978;5.934;2023-04-03T02:51:55;103006.00;;;8.27;64.50
75359;BME280;64046;51.978;5.934;2023-04-03T02:54:24;102994.69;;;8.30;64.41
75359;BME280;64046;51.978;5.934;2023-04-03T02:56:59;103000.78;;;8.24;64.65
75359;BME280;64046;51.978;5.934;2023-04-03T02:59:28;103004.25;;;8.26;64.83
75359;BME280;64046;51.978;5.934;2023-04-03T03:01:58;103010.34;;;8.24;64.84
75359;BME280;64046;51.978;5.934;2023-04-03T03:04:29;103006.88;;;8.32;65.18
75359;BME280;64046;51.978;5.934;2023-04-03T03:06:59;103014.69;;;8.19;65.49
75359;BME280;64046;51.978;5.934;2023-04-03T03:09:28;103006.84;;;8.19;65.34
75359;BME280;64046;51.978;5.934;2023-04-03T03:11:58;103017.31;;;8.12;65.76
75359;BME280;64046;51.978;5.934;2023-04-03T03:14:29;103019.03;;;8.10;65.74
75359;BME280;64046;51.978;5.934;2023-04-03T03:16:58;103023.38;;;8.05;66.00
75359;BME280;64046;51.978;5.934;2023-04-03T03:19:33;103019.91;;;8.16;66.26
75359;BME280;64046;51.978;5.934;2023-04-03T03:22:02;103018.13;;;7.94;66.75
75359;BME280;64046;51.978;5.934;2023-04-03T03:24:32;103033.78;;;7.93;66.86
75359;BME280;64046;51.978;5.934;2023-04-03T03:27:01;103027.69;;;7.88;67.09
75359;BME280;64046;51.978;5.934;2023-04-03T03:29:30;103027.69;;;7.88;67.17
75359;BME280;64046;51.978;5.934;2023-04-03T03:32:00;103033.78;;;7.85;67.02
75359;BME280;64046;51.978;5.934;2023-04-03T03:34:29;103040.72;;;7.85;67.25
75359;BME280;64046;51.978;5.934;2023-04-03T03:37:01;103037.31;;;8.00;67.07
75359;BME280;64046;51.978;5.934;2023-04-03T03:39:31;103033.75;;;7.82;67.36
75359;BME280;64046;51.978;5.934;2023-04-03T03:42:00;103034.63;;;7.83;67.26
75359;BME280;64046;51.978;5.934;2023-04-03T03:44:29;103036.34;;;7.82;67.47
75359;BME280;64046;51.978;5.934;2023-04-03T03:46:59;103033.75;;;7.84;67.34
75359;BME280;64046;51.978;5.934;2023-04-03T03:49:29;103045.09;;;7.83;67.28
75359;BME280;64046;51.978;5.934;2023-04-03T03:52:01;103046.00;;;7.99;67.13
75359;BME280;64046;51.978;5.934;2023-04-03T03:54:30;103045.09;;;7.84;67.18
75359;BME280;64046;51.978;5.934;2023-04-03T03:56:59;103043.31;;;7.82;67.20
75359;BME280;64046;51.978;5.934;2023-04-03T03:59:30;103043.31;;;7.80;67.34
75359;BME280;64046;51.978;5.934;2023-04-03T04:01:59;103045.03;;;7.76;67.27
75359;BME280;64046;51.978;5.934;2023-04-03T04:04:28;103045.03;;;7.76;67.42
75359;BME280;64046;51.978;5.934;2023-04-03T04:07:00;103041.56;;;7.79;67.35
75359;BME280;64046;51.978;5.934;2023-04-03T04:09:31;103042.47;;;7.81;67.19
75359;BME280;64046;51.978;5.934;2023-04-03T04:12:00;103042.47;;;7.81;67.06
75359;BME280;64046;51.978;5.934;2023-04-03T04:14:31;103053.75;;;7.77;67.10
75359;BME280;64046;51.978;5.934;2023-04-03T04:17:01;103051.16;;;7.74;67.29
75359;BME280;64046;51.978;5.934;2023-04-03T04:19:30;103047.63;;;7.72;67.19
75359;BME280;64046;51.978;5.934;2023-04-03T04:22:02;103045.09;;;7.84;67.12
75359;BME280;64046;51.978;5.934;2023-04-03T04:24:33;103047.63;;;7.67;67.26
75359;BME280;64046;51.978;5.934;2023-04-03T04:27:03;103055.47;;;7.66;67.80
75359;BME280;64046;51.978;5.934;2023-04-03T04:29:33;103053.69;;;7.58;67.96
75359;BME280;64046;51.978;5.934;2023-04-03T04:32:05;103052.78;;;7.52;68.07
75359;BME280;64046;51.978;5.934;2023-04-03T04:34:35;103052.75;;;7.47;68.24
75359;BME280;64046;51.978;5.934;2023-04-03T04:37:06;103046.72;;;7.57;68.47
75359;BME280;64046;51.978;5.934;2023-04-03T04:39:36;103051.00;;;7.41;68.66
75359;BME280;64046;51.978;5.934;2023-04-03T04:42:06;103059.66;;;7.39;68.64
75359;BME280;64046;51.978;5.934;2023-04-03T04:44:40;103062.25;;;7.28;68.84
75359;BME280;64046;51.978;5.934;2023-04-03T04:47:09;103049.13;;;7.20;69.06
75359;BME280;64046;51.978;5.934;2023-04-03T04:49:38;103051.72;;;7.16;69.34
75359;BME280;64046;51.978;5.934;2023-04-03T04:52:10;103061.34;;;7.31;69.05
75359;BME280;64046;51.978;5.934;2023-04-03T04:54:40;103063.00;;;7.16;69.05
75359;BME280;64046;51.978;5.934;2023-04-03T04:57:10;103069.13;;;7.17;68.89
75359;BME280;64046;51.978;5.934;2023-04-03T04:59:39;103074.34;;;7.17;68.62
75359;BME280;64046;51.978;5.934;2023-04-03T05:02:08;103074.34;;;7.18;68.63
75359;BME280;64046;51.978;5.934;2023-04-03T05:04:40;103077.81;;;7.20;68.20
75359;BME280;64046;51.978;5.934;2023-04-03T05:07:18;103079.66;;;7.32;68.08
75359;BME280;64046;51.978;5.934;2023-04-03T05:09:47;103080.41;;;7.14;68.24
75359;BME280;64046;51.978;5.934;2023-04-03T05:12:17;103078.63;;;7.13;68.22
75359;BME280;64046;51.978;5.934;2023-04-03T05:14:53;103080.41;;;7.14;67.91
75359;BME280;64046;51.978;5.934;2023-04-03T05:17:22;103085.59;;;7.11;67.64
75359;BME280;64046;51.978;5.934;2023-04-03T05:19:58;103078.72;;;7.24;67.63
75359;BME280;64046;51.978;5.934;2023-04-03T05:22:31;103080.44;;;7.23;67.66
75359;BME280;64046;51.978;5.934;2023-04-03T05:25:06;103081.25;;;7.15;67.33
75359;BME280;64046;51.978;5.934;2023-04-03T05:27:36;103093.38;;;7.06;67.28
75359;BME280;64046;51.978;5.934;2023-04-03T05:30:07;103088.25;;;7.19;67.20
75359;BME280;64046;51.978;5.934;2023-04-03T05:32:38;103097.72;;;7.10;66.82
75359;BME280;64046;51.978;5.934;2023-04-03T05:35:22;103097.72;;;7.06;67.01
75359;BME280;64046;51.978;5.934;2023-04-03T05:37:57;103102.19;;;7.22;66.62
75359;BME280;64046;51.978;5.934;2023-04-03T05:40:26;103105.59;;;7.12;66.59
75359;BME280;64046;51.978;5.934;2023-04-03T05:42:57;103107.31;;;7.10;66.20
75359;BME280;64046;51.978;5.934;2023-04-03T05:45:30;103109.09;;;7.20;66.09
75359;BME280;64046;51.978;5.934;2023-04-03T05:47:59;103108.19;;;7.12;66.16
75359;BME280;64046;51.978;5.934;2023-04-03T05:50:30;103114.28;;;7.16;65.81
75359;BME280;64046;51.978;5.934;2023-04-03T05:53:02;103108.34;;;7.34;65.61
75359;BME280;64046;51.978;5.934;2023-04-03T05:55:33;103114.28;;;7.16;65.53
75359;BME280;64046;51.978;5.934;2023-04-03T05:58:02;103114.31;;;7.17;65.54
75359;BME280;64046;51.978;5.934;2023-04-03T06:00:31;103115.16;;;7.18;65.45
75359;BME280;64046;51.978;5.934;2023-04-03T06:03:02;103112.56;;;7.16;65.51
75359;BME280;64046;51.978;5.934;2023-04-03T06:05:32;103115.22;;;7.19;65.37
75359;BME280;64046;51.978;5.934;2023-04-03T06:08:04;103115.28;;;7.35;64.98
75359;BME280;64046;51.978;5.934;2023-04-03T06:10:35;103125.59;;;7.16;65.19
75359;BME280;64046;51.978;5.934;2023-04-03T06:13:06;103129.97;;;7.19;65.16
75359;BME280;64046;51.978;5.934;2023-04-03T06:15:35;103118.66;;;7.18;65.14
75359;BME280;64046;51.978;5.934;2023-04-03T06:18:04;103118.69;;;7.21;65.15
75359;BME280;64046;51.978;5.934;2023-04-03T06:20:34;103130.03;;;7.25;64.99
75359;BME280;64046;51.978;5.934;2023-04-03T06:23:06;103125.78;;;7.41;64.64
75359;BME280;64046;51.978;5.934;2023-04-03T06:25:36;103136.09;;;7.27;64.56
75359;BME280;64046;51.978;5.934;2023-04-03T06:28:05;103137.88;;;7.28;64.47
75359;BME280;64046;51.978;5.934;2023-04-03T06:30:36;103135.28;;;7.31;64.08
75359;BME280;64046;51.978;5.934;2023-04-03T06:33:05;103140.50;;;7.33;64.02
75359;BME280;64046;51.978;5.934;2023-04-03T06:35:34;103149.19;;;7.36;63.75
75359;BME280;64046;51.978;5.934;2023-04-03T06:38:07;103138.88;;;7.53;63.45
75359;BME280;64046;51.978;5.934;2023-04-03T06:40:37;103144.03;;;7.41;63.37
75359;BME280;64046;51.978;5.934;2023-04-03T06:43:06;103147.50;;;7.43;62.97
75359;BME280;64046;51.978;5.934;2023-04-03T06:45:36;103141.47;;;7.50;62.78
75359;BME280;64046;51.978;5.934;2023-04-03T06:48:05;103153.75;;;7.65;62.27
75359;BME280;64046;51.978;5.934;2023-04-03T06:50:35;103154.63;;;7.72;61.84
75359;BME280;64046;51.978;5.934;2023-04-03T06:53:07;103153.81;;;7.84;61.53
75359;BME280;64046;51.978;5.934;2023-04-03T06:55:36;103152.97;;;7.89;61.29
75359;BME280;64046;51.978;5.934;2023-04-03T06:58:05;103153.88;;;7.96;60.87
75359;BME280;64046;51.978;5.934;2023-04-03T07:00:34;103159.13;;;8.04;60.29
75359;BME280;64046;51.978;5.934;2023-04-03T07:03:03;103155.66;;;8.06;60.01
75359;BME280;64046;51.978;5.934;2023-04-03T07:05:32;103169.63;;;8.16;59.65
75359;BME280;64046;51.978;5.934;2023-04-03T07:08:01;103173.09;;;8.17;59.47
75359;BME280;64046;51.978;5.934;2023-04-03T07:10:33;103164.47;;;8.27;58.96
75359;BME280;64046;51.978;5.934;2023-04-03T07:13:02;103184.44;;;8.11;59.11
75359;BME280;64046;51.978;5.934;2023-04-03T07:15:31;103182.63;;;8.04;58.98
75359;BME280;64046;51.978;5.934;2023-04-03T07:18:02;103178.28;;;7.98;58.89
75359;BME280;64046;51.978;5.934;2023-04-03T07:20:32;103185.22;;;8.01;58.69
75359;BME280;64046;51.978;5.934;2023-04-03T07:23:01;103184.44;;;8.14;58.37
75359;BME280;64046;51.978;5.934;2023-04-03T07:25:33;103190.59;;;8.27;57.92
75359;BME280;64046;51.978;5.934;2023-04-03T07:28:02;103189.66;;;8.12;58.05
75359;BME280;64046;51.978;5.934;2023-04-03T07:30:34;103186.16;;;8.17;57.63
75359;BME280;64046;51.978;5.934;2023-04-03T07:33:03;103191.44;;;8.18;57.45
75359;BME280;64046;51.978;5.934;2023-04-03T07:35:32;103192.31;;;8.29;57.38
75359;BME280;64046;51.978;5.934;2023-04-03T07:38:01;103196.72;;;8.43;57.01
75359;BME280;64046;51.978;5.934;2023-04-03T07:40:33;103195.97;;;8.65;56.21
75359;BME280;64046;51.978;5.934;2023-04-03T07:43:03;103208.97;;;8.50;56.10
75359;BME280;64046;51.978;5.934;2023-04-03T07:45:35;103204.66;;;8.61;55.72
75359;BME280;64046;51.978;5.934;2023-04-03T07:48:05;103204.66;;;8.61;55.39
75359;BME280;64046;51.978;5.934;2023-04-03T07:50:34;103206.38;;;8.61;54.89
75359;BME280;64046;51.978;5.934;2023-04-03T07:53:03;103209.88;;;8.69;54.92
75359;BME280;64046;51.978;5.934;2023-04-03T07:55:36;103201.22;;;8.87;54.50
75359;BME280;64046;51.978;5.934;2023-04-03T07:58:09;103199.47;;;8.78;54.08
75359;BME280;64046;51.978;5.934;2023-04-03T08:00:39;103210.78;;;8.79;53.57
75359;BME280;64046;51.978;5.934;2023-04-03T08:03:10;103204.69;;;8.88;52.96
75359;BME280;64046;51.978;5.934;2023-04-03T08:05:40;103205.56;;;8.83;52.45
75359;BME280;64046;51.978;5.934;2023-04-03T08:08:11;103198.56;;;8.79;51.85
75359;BME280;64046;51.978;5.934;2023-04-03T08:10:43;103207.31;;;8.88;51.76
75359;BME280;64046;51.978;5.934;2023-04-03T08:13:12;103199.47;;;8.77;51.38
75359;BME280;64046;51.978;5.934;2023-04-03T08:15:41;103209.91;;;8.92;51.51
75359;BME280;64046;51.978;5.934;2023-04-03T08:18:10;103204.72;;;9.09;50.81
75359;BME280;64046;51.978;5.934;2023-04-03T08:20:39;103224.75;;;9.20;49.79
75359;BME280;64046;51.978;5.934;2023-04-03T08:23:09;103209.97;;;9.20;49.47
75359;BME280;64046;51.978;5.934;2023-04-03T08:25:39;103200.34;;;9.28;49.13
75359;BME280;64046;51.978;5.934;2023-04-03T08:28:11;103211.69;;;9.43;48.67
75359;BME280;64046;51.978;5.934;2023-04-03T08:30:41;103218.66;;;9.39;48.53
75359;BME280;64046;51.978;5.934;2023-04-03T08:33:12;103219.53;;;9.40;48.16
75359;BME280;64046;51.978;5.934;2023-04-03T08:35:42;103211.66;;;9.55;47.80
75359;BME280;64046;51.978;5.934;2023-04-03T08:38:11;103215.16;;;9.63;46.73
75359;BME280;64046;51.978;5.934;2023-04-03T08:40:40;103223.84;;;9.79;46.44
75359;BME280;64046;51.978;5.934;2023-04-03T08:43:27;103225.50;;;10.11;45.50
75359;BME280;64046;51.978;5.934;2023-04-03T08:46:02;103226.38;;;10.10;45.33
75359;BME280;64046;51.978;5.934;2023-04-03T08:48:36;103220.25;;;10.17;44.77
75359;BME280;64046;51.978;5.934;2023-04-03T08:51:11;103229.81;;;10.28;44.36
75359;BME280;64046;51.978;5.934;2023-04-03T08:53:46;103228.03;;;10.34;42.69
75359;BME280;64046;51.978;5.934;2023-04-03T08:56:19;103228.13;;;10.16;42.23
75359;BME280;64046;51.978;5.934;2023-04-03T08:58:55;103224.56;;;10.29;41.24
75359;BME280;64046;51.978;5.934;2023-04-03T09:01:28;103214.94;;;10.31;41.29
75359;BME280;64046;51.978;5.934;2023-04-03T09:04:00;103219.28;;;10.38;41.10
75359;BME280;64046;51.978;5.934;2023-04-03T09:06:32;103221.88;;;10.49;40.49
75359;BME280;64046;51.978;5.934;2023-04-03T09:09:11;103220.91;;;10.63;39.51
75359;BME280;64046;51.978;5.934;2023-04-03T09:11:52;103229.69;;;10.63;38.94
75359;BME280;64046;51.978;5.934;2023-04-03T09:14:34;103217.38;;;10.68;38.76
75359;BME280;64046;51.978;5.934;2023-04-03T09:17:13;103224.34;;;10.74;38.65
75359;BME280;64046;51.978;5.934;2023-04-03T09:19:51;103221.66;;;10.88;38.41
75359;BME280;64046;51.978;5.934;2023-04-03T09:22:24;103213.75;;;10.93;37.89
75359;BME280;64046;51.978;5.934;2023-04-03T09:24:58;103213.69;;;11.02;37.16
75359;BME280;64046;51.978;5.934;2023-04-03T09:27:28;103219.84;;;10.93;36.41
75359;BME280;64046;51.978;5.934;2023-04-03T09:30:00;103218.88;;;11.08;35.70
75359;BME280;64046;51.978;5.934;2023-04-03T09:32:31;103225.03;;;11.04;35.73
75359;BME280;64046;51.978;5.934;2023-04-03T09:35:03;103230.22;;;11.08;35.04
75359;BME280;64046;51.978;5.934;2023-04-03T09:37:38;103229.34;;;11.11;34.39
75359;BME280;64046;51.978;5.934;2023-04-03T09:40:38;103221.38;;;11.25;33.28
75359;BME280;64046;51.978;5.934;2023-04-03T09:43:23;103213.56;;;11.14;33.44
75359;BME280;64046;51.978;5.934;2023-04-03T09:46:16;103215.38;;;11.11;34.01
75359;BME280;64046;51.978;5.934;2023-04-03T09:48:50;103221.41;;;11.20;33.51
75359;BME280;64046;51.978;5.934;2023-04-03T09:51:25;103239.78;;;11.22;32.92
75359;BME280;64046;51.978;5.934;2023-04-03T09:53:55;103215.41;;;11.01;33.07
75359;BME280;64046;51.978;5.934;2023-04-03T09:56:27;103214.41;;;11.21;33.50
75359;BME280;64046;51.978;5.934;2023-04-03T09:59:13;103203.69;;;11.46;33.25
75359;BME280;64046;51.978;5.934;2023-04-03T10:01:57;103202.66;;;11.62;33.26
75359;BME280;64046;51.978;5.934;2023-04-03T10:04:37;103203.47;;;11.67;32.80
75359;BME280;64046;51.978;5.934;2023-04-03T10:07:32;103204.44;;;11.57;31.93
75359;BME280;64046;51.978;5.934;2023-04-03T10:10:16;103195.81;;;11.44;32.02
75359;BME280;64046;51.978;5.934;2023-04-03T10:12:46;103210.91;;;11.22;32.32
75359;BME280;64046;51.978;5.934;2023-04-03T10:15:16;103188.09;;;11.27;32.52
75359;BME280;64046;51.978;5.934;2023-04-03T10:17:56;103189.66;;;11.48;32.23
75359;BME280;64046;51.978;5.934;2023-04-03T10:20:33;103191.44;;;11.43;32.02
75359;BME280;64046;51.978;5.934;2023-04-03T10:23:14;103186.16;;;11.46;32.50
75359;BME280;64046;51.978;5.934;2023-04-03T10:25:53;103193.19;;;11.44;32.45
75359;BME280;64046;51.978;5.934;2023-04-03T10:28:31;103178.31;;;11.43;32.57
75359;BME280;64046;51.978;5.934;2023-04-03T10:31:06;103180.06;;;11.44;31.90
75359;BME280;64046;51.978;5.934;2023-04-03T10:33:53;103181.72;;;11.53;31.86
75359;BME280;64046;51.978;5.934;2023-04-03T10:36:35;103158.97;;;11.52;31.89
75359;BME280;64046;51.978;5.934;2023-04-03T10:39:14;103160.63;;;11.62;32.27
75359;BME280;64046;51.978;5.934;2023-04-03T10:42:00;103173.59;;;11.76;32.27
75359;BME280;64046;51.978;5.934;2023-04-03T10:44:37;103159.56;;;11.78;32.38
75359;BME280;64046;51.978;5.934;2023-04-03T10:47:14;103156.88;;;11.82;32.50
75359;BME280;64046;51.978;5.934;2023-04-03T10:49:55;103155.88;;;11.92;32.54
75359;BME280;64046;51.978;5.934;2023-04-03T10:52:30;103151.66;;;11.80;32.82
75359;BME280;64046;51.978;5.934;2023-04-03T10:55:17;103145.38;;;11.92;32.86
75359;BME280;64046;51.978;5.934;2023-04-03T10:57:56;103164.66;;;11.94;32.72
75359;BME280;64046;51.978;5.934;2023-04-03T11:00:35;103127.00;;;11.95;32.17
75359;BME280;64046;51.978;5.934;2023-04-03T11:03:10;103131.31;;;11.98;32.41
75359;BME280;64046;51.978;5.934;2023-04-03T11:05:45;103130.50;;;11.94;32.15
75359;BME280;64046;51.978;5.934;2023-04-03T11:08:24;103125.16;;;12.02;32.23
75359;BME280;64046;51.978;5.934;2023-04-03T11:10:58;103121.63;;;12.04;32.57
75359;BME280;64046;51.978;5.934;2023-04-03T11:13:33;103118.88;;;12.14;32.73
75359;BME280;64046;51.978;5.934;2023-04-03T11:16:04;103117.06;;;12.17;32.28
75359;BME280;64046;51.978;5.934;2023-04-03T11:18:39;103115.19;;;12.25;31.88
75359;BME280;64046;51.978;5.934;2023-04-03T11:21:16;103130.09;;;12.25;31.75
75359;BME280;64046;51.978;5.934;2023-04-03T11:23:48;103115.38;;;12.11;31.80
75359;BME280;64046;51.978;5.934;2023-04-03T11:26:18;103119.63;;;12.20;31.39
75359;BME280;64046;51.978;5.934;2023-04-03T11:28:52;103120.41;;;12.28;31.29
75359;BME280;64046;51.978;5.934;2023-04-03T11:31:42;103117.59;;;12.42;31.12
75359;BME280;64046;51.978;5.934;2023-04-03T11:34:24;103120.25;;;12.39;31.17
75359;BME280;64046;51.978;5.934;2023-04-03T11:37:10;103110.59;;;12.41;31.24
75359;BME280;64046;51.978;5.934;2023-04-03T11:39:48;103117.50;;;12.47;31.15
75359;BME280;64046;51.978;5.934;2023-04-03T11:42:33;103110.53;;;12.44;31.22
75359;BME280;64046;51.978;5.934;2023-04-03T11:45:22;103104.19;;;12.59;31.31
75359;BME280;64046;51.978;5.934;2023-04-03T11:47:54;103110.41;;;12.54;31.44
75359;BME280;64046;51.978;5.934;2023-04-03T11:50:44;103097.72;;;12.77;30.87
75359;BME280;64046;51.978;5.934;2023-04-03T11:53:31;103093.41;;;12.73;31.30
75359;BME280;64046;51.978;5.934;2023-04-03T11:59:26;103106.44;;;12.81;31.19
75359;BME280;64046;51.978;5.934;2023-04-03T12:02:36;103078.47;;;12.77;31.42
75359;BME280;64046;51.978;5.934;2023-04-03T12:05:25;103079.28;;;12.79;31.71
75359;BME280;64046;51.978;5.934;2023-04-03T12:08:16;103077.50;;;12.81;31.57
75359;BME280;64046;51.978;5.934;2023-04-03T12:11:14;103079.38;;;12.74;31.39
75359;BME280;64046;51.978;5.934;2023-04-03T12:14:03;103062.84;;;12.66;31.27
75359;BME280;64046;51.978;5.934;2023-04-03T12:16:43;103069.09;;;12.59;31.56
75359;BME280;64046;51.978;5.934;2023-04-03T12:19:32;103060.19;;;12.68;31.72
75359;BME280;64046;51.978;5.934;2023-04-03T12:22:13;103080.41;;;12.66;31.73
75359;BME280;64046;51.978;5.934;2023-04-03T12:24:46;103068.31;;;12.54;31.83
75359;BME280;64046;51.978;5.934;2023-04-03T12:27:25;103064.44;;;12.75;31.76
75359;BME280;64046;51.978;5.934;2023-04-03T12:30:12;103073.16;;;12.78;31.29
75359;BME280;64046;51.978;5.934;2023-04-03T12:32:58;103069.84;;;12.67;31.69
75359;BME280;64046;51.978;5.934;2023-04-03T12:35:35;103067.34;;;12.61;31.90
75359;BME280;64046;51.978;5.934;2023-04-03T12:38:21;103075.19;;;12.62;31.75
75359;BME280;64046;51.978;5.934;2023-04-03T12:40:59;103061.34;;;12.51;31.98
75359;BME280;64046;51.978;5.934;2023-04-03T12:43:42;103069.97;;;12.61;32.14
75359;BME280;64046;51.978;5.934;2023-04-03T12:46:14;103058.47;;;12.65;32.30
75359;BME280;64046;51.978;5.934;2023-04-03T12:48:52;103055.69;;;12.74;31.93
75359;BME280;64046;51.978;5.934;2023-04-03T12:51:28;103048.75;;;12.70;31.72
75359;BME280;64046;51.978;5.934;2023-04-03T12:54:04;103061.25;;;12.57;31.55
75359;BME280;64046;51.978;5.934;2023-04-03T12:56:42;103042.31;;;12.37;31.76
75359;BME280;64046;51.978;5.934;2023-04-03T12:59:16;103042.06;;;12.52;31.72
75359;BME280;64046;51.978;5.934;2023-04-03T13:01:53;103054.25;;;12.55;31.63
75359;BME280;64046;51.978;5.934;2023-04-03T13:04:26;103036.84;;;12.48;31.69
75359;BME280;64046;51.978;5.934;2023-04-03T13:06:56;103036.16;;;12.36;31.92
75359;BME280;64046;51.978;5.934;2023-04-03T13:09:27;103029.81;;;12.50;31.63
75359;BME280;64046;51.978;5.934;2023-04-03T13:11:59;103025.44;;;12.49;31.82
75359;BME280;64046;51.978;5.934;2023-04-03T13:14:29;103030.84;;;12.41;31.86
75359;BME280;64046;51.978;5.934;2023-04-03T13:17:03;103034.16;;;12.51;31.73
75359;BME280;64046;51.978;5.934;2023-04-03T13:19:35;103032.38;;;12.53;31.62
75359;BME280;64046;51.978;5.934;2023-04-03T13:22:08;103025.38;;;12.52;31.76
75359;BME280;64046;51.978;5.934;2023-04-03T13:24:40;103011.56;;;12.39;31.78
75359;BME280;64046;51.978;5.934;2023-04-03T13:27:11;103011.41;;;12.50;31.92
75359;BME280;64046;51.978;5.934;2023-04-03T13:29:40;102995.03;;;12.34;32.25
75359;BME280;64046;51.978;5.934;2023-04-03T13:32:18;102988.41;;;12.62;32.27